sensor_id;sensor_type;location;lat;lon;timestamp;temperature;humidity
16625;DHT22;8426;48.496;9.098;2022-08-18T00:01:14;17.80;99.90
16625;DHT22;8426;48.496;9.098;2022-08-18T00:06:21;17.70;99.90
16625;DHT22;8426;48.496;9.098;2022-08-18T00:11:31;17.70;99.90
16625;DHT22;8426;48.496;9.098;2022-08-18T00:16:42;17.60;99.90
16625;DHT22;8426;48.496;9.098;2022-08-18T00:21:49;17.60;99.90
16625;DHT22;8426;48.496;9.098;2022-08-18T00:26:53;17.50;99.90
16625;DHT22;8426;48.496;9.098;2022-08-18T00:31:57;17.50;99.90
16625;DHT22;8426;48.496;9.098;2022-08-18T00:37:01;17.40;99.90
16625;DHT22;8426;48.496;9.098;2022-08-18T00:42:13;17.40;99.90
16625;DHT22;8426;48.496;9.098;2022-08-18T00:47:32;17.40;99.90
16625;DHT22;8426;48.496;9.098;2022-08-18T00:52:59;17.30;99.90
16625;DHT22;8426;48.496;9.098;2022-08-18T00:58:06;17.30;99.90
16625;DHT22;8426;48.496;9.098;2022-08-18T01:03:14;17.20;99.90
16625;DHT22;8426;48.496;9.098;2022-08-18T01:08:27;17.20;99.90
16625;DHT22;8426;48.496;9.098;2022-08-18T01:13:32;17.20;99.90
16625;DHT22;8426;48.496;9.098;2022-08-18T01:18:35;17.20;99.90
16625;DHT22;8426;48.496;9.098;2022-08-18T01:23:58;17.20;99.90
16625;DHT22;8426;48.496;9.098;2022-08-18T01:29:05;17.20;99.90
16625;DHT22;8426;48.496;9.098;2022-08-18T01:34:20;17.10;99.90
16625;DHT22;8426;48.496;9.098;2022-08-18T01:39:27;17.10;99.90
16625;DHT22;8426;48.496;9.098;2022-08-18T01:44:50;17.10;99.90
16625;DHT22;8426;48.496;9.098;2022-08-18T01:49:54;17.00;99.90
16625;DHT22;8426;48.496;9.098;2022-08-18T01:54:59;17.00;99.90
16625;DHT22;8426;48.496;9.098;2022-08-18T02:00:03;16.90;99.90
16625;DHT22;8426;48.496;9.098;2022-08-18T02:05:15;16.90;99.90
16625;DHT22;8426;48.496;9.098;2022-08-18T02:10:20;16.90;99.90
16625;DHT22;8426;48.496;9.098;2022-08-18T02:15:24;16.90;99.90
16625;DHT22;8426;48.496;9.098;2022-08-18T02:20:29;16.90;99.90
16625;DHT22;8426;48.496;9.098;2022-08-18T02:25:34;16.90;99.90
16625;DHT22;8426;48.496;9.098;2022-08-18T02:30:37;16.90;99.90
16625;DHT22;8426;48.496;9.098;2022-08-18T02:35:41;16.90;99.90
16625;DHT22;8426;48.496;9.098;2022-08-18T02:40:46;16.80;99.90
16625;DHT22;8426;48.496;9.098;2022-08-18T02:45:49;16.80;99.90
16625;DHT22;8426;48.496;9.098;2022-08-18T02:50:59;16.80;99.90
16625;DHT22;8426;48.496;9.098;2022-08-18T02:56:09;16.80;99.90
16625;DHT22;8426;48.496;9.098;2022-08-18T03:01:44;16.80;99.90
16625;DHT22;8426;48.496;9.098;2022-08-18T03:06:52;16.70;99.90
16625;DHT22;8426;48.496;9.098;2022-08-18T03:11:57;16.70;99.90
16625;DHT22;8426;48.496;9.098;2022-08-18T03:17:02;16.70;99.90
16625;DHT22;8426;48.496;9.098;2022-08-18T03:22:07;16.60;99.90
16625;DHT22;8426;48.496;9.098;2022-08-18T03:27:30;16.60;99.90
16625;DHT22;8426;48.496;9.098;2022-08-18T03:32:34;16.60;99.90
16625;DHT22;8426;48.496;9.098;2022-08-18T03:37:37;16.60;99.90
16625;DHT22;8426;48.496;9.098;2022-08-18T03:42:42;16.60;99.90
16625;DHT22;8426;48.496;9.098;2022-08-18T03:47:45;16.60;99.90
16625;DHT22;8426;48.496;9.098;2022-08-18T03:52:51;16.60;99.90
16625;DHT22;8426;48.496;9.098;2022-08-18T03:58:00;16.50;99.90
16625;DHT22;8426;48.496;9.098;2022-08-18T04:03:04;16.50;99.90
16625;DHT22;8426;48.496;9.098;2022-08-18T04:08:08;16.40;99.90
16625;DHT22;8426;48.496;9.098;2022-08-18T04:13:12;16.40;99.90
16625;DHT22;8426;48.496;9.098;2022-08-18T04:18:16;16.40;99.90
16625;DHT22;8426;48.496;9.098;2022-08-18T04:23:24;16.50;99.90
16625;DHT22;8426;48.496;9.098;2022-08-18T04:28:30;16.40;99.90
16625;DHT22;8426;48.496;9.098;2022-08-18T04:33:33;16.40;99.90
16625;DHT22;8426;48.496;9.098;2022-08-18T04:38:37;16.30;99.90
16625;DHT22;8426;48.496;9.098;2022-08-18T04:43:44;16.30;99.90
16625;DHT22;8426;48.496;9.098;2022-08-18T04:48:51;16.40;99.90
16625;DHT22;8426;48.496;9.098;2022-08-18T04:53:59;16.50;99.90
16625;DHT22;8426;48.496;9.098;2022-08-18T04:59:06;16.80;99.90
16625;DHT22;8426;48.496;9.098;2022-08-18T05:04:09;17.00;99.90
16625;DHT22;8426;48.496;9.098;2022-08-18T05:09:14;17.20;99.90
16625;DHT22;8426;48.496;9.098;2022-08-18T05:14:25;17.50;99.90
16625;DHT22;8426;48.496;9.098;2022-08-18T05:19:29;17.70;99.90
16625;DHT22;8426;48.496;9.098;2022-08-18T05:24:33;17.90;99.90
16625;DHT22;8426;48.496;9.098;2022-08-18T05:29:39;18.30;99.90
16625;DHT22;8426;48.496;9.098;2022-08-18T05:34:46;18.50;99.90
16625;DHT22;8426;48.496;9.098;2022-08-18T05:39:56;18.40;99.90
16625;DHT22;8426;48.496;9.098;2022-08-18T05:45:03;18.20;99.90
16625;DHT22;8426;48.496;9.098;2022-08-18T05:50:11;18.10;99.90
16625;DHT22;8426;48.496;9.098;2022-08-18T05:55:21;18.20;99.90
16625;DHT22;8426;48.496;9.098;2022-08-18T06:00:52;18.20;99.90
16625;DHT22;8426;48.496;9.098;2022-08-18T06:06:03;18.20;99.90
16625;DHT22;8426;48.496;9.098;2022-08-18T06:11:14;18.30;99.90
16625;DHT22;8426;48.496;9.098;2022-08-18T06:16:32;18.50;99.90
16625;DHT22;8426;48.496;9.098;2022-08-18T06:21:45;18.70;99.90
16625;DHT22;8426;48.496;9.098;2022-08-18T06:26:58;18.90;99.90
16625;DHT22;8426;48.496;9.098;2022-08-18T06:32:08;19.10;99.90
16625;DHT22;8426;48.496;9.098;2022-08-18T06:37:20;19.20;99.90
16625;DHT22;8426;48.496;9.098;2022-08-18T06:42:27;19.20;99.90
16625;DHT22;8426;48.496;9.098;2022-08-18T06:47:38;19.30;99.90
16625;DHT22;8426;48.496;9.098;2022-08-18T06:52:51;19.50;99.90
16625;DHT22;8426;48.496;9.098;2022-08-18T06:57:56;19.70;99.90
16625;DHT22;8426;48.496;9.098;2022-08-18T07:03:06;19.70;99.90
16625;DHT22;8426;48.496;9.098;2022-08-18T07:08:15;19.60;99.90
16625;DHT22;8426;48.496;9.098;2022-08-18T07:13:23;19.30;99.90
16625;DHT22;8426;48.496;9.098;2022-08-18T07:18:28;19.00;99.90
16625;DHT22;8426;48.496;9.098;2022-08-18T07:23:34;18.80;99.90
16625;DHT22;8426;48.496;9.098;2022-08-18T07:28:41;18.80;99.90
16625;DHT22;8426;48.496;9.098;2022-08-18T07:33:52;18.90;99.90
16625;DHT22;8426;48.496;9.098;2022-08-18T07:39:01;18.90;99.90
16625;DHT22;8426;48.496;9.098;2022-08-18T07:44:12;19.00;99.90
16625;DHT22;8426;48.496;9.098;2022-08-18T07:49:25;18.90;99.90
16625;DHT22;8426;48.496;9.098;2022-08-18T07:54:43;18.80;99.90
16625;DHT22;8426;48.496;9.098;2022-08-18T07:59:56;18.80;99.90
16625;DHT22;8426;48.496;9.098;2022-08-18T08:05:09;19.00;99.90
16625;DHT22;8426;48.496;9.098;2022-08-18T08:10:27;19.80;99.90
16625;DHT22;8426;48.496;9.098;2022-08-18T08:15:39;22.50;99.90
16625;DHT22;8426;48.496;9.098;2022-08-18T08:20:48;25.70;99.90
16625;DHT22;8426;48.496;9.098;2022-08-18T08:26:15;27.80;99.90
16625;DHT22;8426;48.496;9.098;2022-08-18T08:31:26;27.70;99.90
16625;DHT22;8426;48.496;9.098;2022-08-18T08:36:41;27.00;99.90
16625;DHT22;8426;48.496;9.098;2022-08-18T08:41:49;25.60;99.90
16625;DHT22;8426;48.496;9.098;2022-08-18T08:47:02;24.70;99.90
16625;DHT22;8426;48.496;9.098;2022-08-18T08:52:13;25.20;99.90
16625;DHT22;8426;48.496;9.098;2022-08-18T08:57:25;27.60;99.90
16625;DHT22;8426;48.496;9.098;2022-08-18T09:02:52;30.60;99.90
16625;DHT22;8426;48.496;9.098;2022-08-18T09:08:30;29.60;99.90
16625;DHT22;8426;48.496;9.098;2022-08-18T09:19:29;30.90;99.80
16625;DHT22;8426;48.496;9.098;2022-08-18T09:24:44;30.90;99.10
16625;DHT22;8426;48.496;9.098;2022-08-18T09:29:50;31.40;97.90
16625;DHT22;8426;48.496;9.098;2022-08-18T09:35:07;30.40;98.10
16625;DHT22;8426;48.496;9.098;2022-08-18T09:40:16;31.20;97.10
16625;DHT22;8426;48.496;9.098;2022-08-18T09:45:59;31.90;96.10
16625;DHT22;8426;48.496;9.098;2022-08-18T09:51:33;30.70;97.50
16625;DHT22;8426;48.496;9.098;2022-08-18T09:57:20;29.10;99.50
16625;DHT22;8426;48.496;9.098;2022-08-18T10:08:34;29.10;98.70
16625;DHT22;8426;48.496;9.098;2022-08-18T10:13:49;28.50;99.40
16625;DHT22;8426;48.496;9.098;2022-08-18T10:19:03;29.20;99.60
16625;DHT22;8426;48.496;9.098;2022-08-18T10:24:16;29.60;99.20
16625;DHT22;8426;48.496;9.098;2022-08-18T10:34:57;28.80;99.80
16625;DHT22;8426;48.496;9.098;2022-08-18T10:40:03;28.20;99.90
16625;DHT22;8426;48.496;9.098;2022-08-18T10:45:19;27.90;99.90
16625;DHT22;8426;48.496;9.098;2022-08-18T10:50:28;27.90;99.90
16625;DHT22;8426;48.496;9.098;2022-08-18T10:55:46;28.30;99.90
16625;DHT22;8426;48.496;9.098;2022-08-18T11:01:02;27.90;99.90
16625;DHT22;8426;48.496;9.098;2022-08-18T11:06:18;28.60;99.90
16625;DHT22;8426;48.496;9.098;2022-08-18T11:11:30;29.30;99.10
16625;DHT22;8426;48.496;9.098;2022-08-18T11:16:49;28.80;99.90
16625;DHT22;8426;48.496;9.098;2022-08-18T11:21:56;27.90;99.90
16625;DHT22;8426;48.496;9.098;2022-08-18T11:27:04;28.40;99.90
16625;DHT22;8426;48.496;9.098;2022-08-18T11:32:21;28.30;99.90
16625;DHT22;8426;48.496;9.098;2022-08-18T11:37:32;28.30;99.90
16625;DHT22;8426;48.496;9.098;2022-08-18T11:42:58;28.10;99.90
16625;DHT22;8426;48.496;9.098;2022-08-18T11:48:18;27.40;99.90
16625;DHT22;8426;48.496;9.098;2022-08-18T11:53:39;27.90;99.90
16625;DHT22;8426;48.496;9.098;2022-08-18T11:58:49;28.00;99.90
16625;DHT22;8426;48.496;9.098;2022-08-18T12:03:56;28.40;99.90
16625;DHT22;8426;48.496;9.098;2022-08-18T12:09:03;27.80;99.90
16625;DHT22;8426;48.496;9.098;2022-08-18T12:14:15;28.00;99.90
16625;DHT22;8426;48.496;9.098;2022-08-18T12:19:41;28.50;99.90
16625;DHT22;8426;48.496;9.098;2022-08-18T12:24:48;28.50;99.90
16625;DHT22;8426;48.496;9.098;2022-08-18T12:29:53;27.90;99.90
16625;DHT22;8426;48.496;9.098;2022-08-18T12:35:00;27.60;99.90
16625;DHT22;8426;48.496;9.098;2022-08-18T12:40:10;26.50;99.90
16625;DHT22;8426;48.496;9.098;2022-08-18T12:45:17;25.60;99.90
16625;DHT22;8426;48.496;9.098;2022-08-18T12:50:22;24.90;99.90
16625;DHT22;8426;48.496;9.098;2022-08-18T12:55:36;24.40;99.90
16625;DHT22;8426;48.496;9.098;2022-08-18T13:00:46;24.50;99.90
16625;DHT22;8426;48.496;9.098;2022-08-18T13:05:53;24.80;99.90
16625;DHT22;8426;48.496;9.098;2022-08-18T13:11:00;25.10;99.90
16625;DHT22;8426;48.496;9.098;2022-08-18T13:16:22;25.40;99.90
16625;DHT22;8426;48.496;9.098;2022-08-18T13:21:49;25.80;99.90
16625;DHT22;8426;48.496;9.098;2022-08-18T13:26:53;26.00;99.90
16625;DHT22;8426;48.496;9.098;2022-08-18T13:31:56;26.10;99.90
16625;DHT22;8426;48.496;9.098;2022-08-18T13:37:02;26.00;99.90
16625;DHT22;8426;48.496;9.098;2022-08-18T13:42:07;25.90;99.90
16625;DHT22;8426;48.496;9.098;2022-08-18T13:47:30;25.90;99.90
16625;DHT22;8426;48.496;9.098;2022-08-18T13:52:41;25.90;99.90
16625;DHT22;8426;48.496;9.098;2022-08-18T13:57:45;26.20;99.90
16625;DHT22;8426;48.496;9.098;2022-08-18T14:02:50;26.10;99.90
16625;DHT22;8426;48.496;9.098;2022-08-18T14:07:55;25.90;99.90
16625;DHT22;8426;48.496;9.098;2022-08-18T14:12:59;25.90;99.90
16625;DHT22;8426;48.496;9.098;2022-08-18T14:18:21;26.00;99.90
16625;DHT22;8426;48.496;9.098;2022-08-18T14:23:34;26.00;99.90
16625;DHT22;8426;48.496;9.098;2022-08-18T14:29:03;26.10;99.90
16625;DHT22;8426;48.496;9.098;2022-08-18T14:34:11;26.30;99.90
16625;DHT22;8426;48.496;9.098;2022-08-18T14:39:24;26.10;99.90
16625;DHT22;8426;48.496;9.098;2022-08-18T14:44:28;25.80;99.90
16625;DHT22;8426;48.496;9.098;2022-08-18T14:49:33;25.90;99.90
16625;DHT22;8426;48.496;9.098;2022-08-18T14:54:50;25.90;99.90
16625;DHT22;8426;48.496;9.098;2022-08-18T14:59:55;26.00;99.90
16625;DHT22;8426;48.496;9.098;2022-08-18T15:04:58;25.90;99.90
16625;DHT22;8426;48.496;9.098;2022-08-18T15:10:03;25.90;99.90
16625;DHT22;8426;48.496;9.098;2022-08-18T15:15:17;25.80;99.90
16625;DHT22;8426;48.496;9.098;2022-08-18T15:20:25;25.70;99.90
16625;DHT22;8426;48.496;9.098;2022-08-18T15:25:33;25.70;99.90
16625;DHT22;8426;48.496;9.098;2022-08-18T15:30:49;25.60;99.90
16625;DHT22;8426;48.496;9.098;2022-08-18T15:36:17;25.70;99.90
16625;DHT22;8426;48.496;9.098;2022-08-18T15:41:35;25.70;99.90
16625;DHT22;8426;48.496;9.098;2022-08-18T15:46:46;25.80;99.90
16625;DHT22;8426;48.496;9.098;2022-08-18T15:51:54;25.60;99.90
16625;DHT22;8426;48.496;9.098;2022-08-18T15:56:59;25.70;99.90
16625;DHT22;8426;48.496;9.098;2022-08-18T16:02:06;25.70;99.90
16625;DHT22;8426;48.496;9.098;2022-08-18T16:07:12;25.70;99.90
16625;DHT22;8426;48.496;9.098;2022-08-18T16:12:27;25.70;99.90
16625;DHT22;8426;48.496;9.098;2022-08-18T16:17:34;25.80;99.90
16625;DHT22;8426;48.496;9.098;2022-08-18T16:22:39;25.90;99.90
16625;DHT22;8426;48.496;9.098;2022-08-18T16:27:45;25.80;99.90
16625;DHT22;8426;48.496;9.098;2022-08-18T16:32:49;25.70;99.90
16625;DHT22;8426;48.496;9.098;2022-08-18T16:37:53;25.60;99.90
16625;DHT22;8426;48.496;9.098;2022-08-18T16:42:58;25.40;99.90
16625;DHT22;8426;48.496;9.098;2022-08-18T16:48:02;25.00;99.90
16625;DHT22;8426;48.496;9.098;2022-08-18T16:53:12;24.70;99.90
16625;DHT22;8426;48.496;9.098;2022-08-18T16:58:17;24.40;99.90
16625;DHT22;8426;48.496;9.098;2022-08-18T17:03:52;24.10;99.90
16625;DHT22;8426;48.496;9.098;2022-08-18T17:09:21;23.90;99.90
16625;DHT22;8426;48.496;9.098;2022-08-18T17:14:29;23.80;99.90
16625;DHT22;8426;48.496;9.098;2022-08-18T17:19:33;23.70;99.90
16625;DHT22;8426;48.496;9.098;2022-08-18T17:24:42;23.70;99.90
16625;DHT22;8426;48.496;9.098;2022-08-18T17:30:02;23.60;99.90
16625;DHT22;8426;48.496;9.098;2022-08-18T17:35:10;23.50;99.90
16625;DHT22;8426;48.496;9.098;2022-08-18T17:40:17;23.40;99.90
16625;DHT22;8426;48.496;9.098;2022-08-18T17:45:23;23.30;99.90
16625;DHT22;8426;48.496;9.098;2022-08-18T17:50:35;23.10;99.90
16625;DHT22;8426;48.496;9.098;2022-08-18T17:56:00;22.70;99.90
16625;DHT22;8426;48.496;9.098;2022-08-18T18:01:06;22.40;99.90
16625;DHT22;8426;48.496;9.098;2022-08-18T18:06:15;22.20;99.90
16625;DHT22;8426;48.496;9.098;2022-08-18T18:11:26;22.10;99.90
16625;DHT22;8426;48.496;9.098;2022-08-18T18:16:33;22.00;99.90
16625;DHT22;8426;48.496;9.098;2022-08-18T18:21:40;21.90;99.90
16625;DHT22;8426;48.496;9.098;2022-08-18T18:27:22;21.90;99.90
16625;DHT22;8426;48.496;9.098;2022-08-18T18:32:29;21.90;99.90
16625;DHT22;8426;48.496;9.098;2022-08-18T18:37:42;21.90;99.90
16625;DHT22;8426;48.496;9.098;2022-08-18T18:42:48;21.90;99.90
16625;DHT22;8426;48.496;9.098;2022-08-18T18:48:12;21.80;99.90
16625;DHT22;8426;48.496;9.098;2022-08-18T18:53:47;21.70;99.90
16625;DHT22;8426;48.496;9.098;2022-08-18T18:59:12;21.30;99.90
16625;DHT22;8426;48.496;9.098;2022-08-18T19:04:24;20.80;99.90
16625;DHT22;8426;48.496;9.098;2022-08-18T19:09:39;20.60;99.90
16625;DHT22;8426;48.496;9.098;2022-08-18T19:14:53;20.40;99.90
16625;DHT22;8426;48.496;9.098;2022-08-18T19:20:06;20.40;99.90
16625;DHT22;8426;48.496;9.098;2022-08-18T19:25:13;20.30;99.90
16625;DHT22;8426;48.496;9.098;2022-08-18T19:30:19;20.10;99.90
16625;DHT22;8426;48.496;9.098;2022-08-18T19:35:31;20.00;99.90
16625;DHT22;8426;48.496;9.098;2022-08-18T19:40:44;20.00;99.90
16625;DHT22;8426;48.496;9.098;2022-08-18T19:45:54;20.00;99.90
16625;DHT22;8426;48.496;9.098;2022-08-18T19:51:07;20.00;99.90
16625;DHT22;8426;48.496;9.098;2022-08-18T19:56:24;19.90;99.90
16625;DHT22;8426;48.496;9.098;2022-08-18T20:12:56;19.90;99.90
16625;DHT22;8426;48.496;9.098;2022-08-18T20:18:16;19.90;99.90
16625;DHT22;8426;48.496;9.098;2022-08-18T20:23:33;19.80;99.90
16625;DHT22;8426;48.496;9.098;2022-08-18T20:28:39;19.80;99.90
16625;DHT22;8426;48.496;9.098;2022-08-18T20:33:45;19.80;99.90
16625;DHT22;8426;48.496;9.098;2022-08-18T20:38:56;19.70;99.90
16625;DHT22;8426;48.496;9.098;2022-08-18T20:49:48;19.70;99.90
16625;DHT22;8426;48.496;9.098;2022-08-18T20:55:00;19.60;99.90
16625;DHT22;8426;48.496;9.098;2022-08-18T21:00:17;19.60;99.90
16625;DHT22;8426;48.496;9.098;2022-08-18T21:05:32;19.50;99.90
16625;DHT22;8426;48.496;9.098;2022-08-18T21:10:36;19.40;99.90
16625;DHT22;8426;48.496;9.098;2022-08-18T21:15:41;19.40;99.90
16625;DHT22;8426;48.496;9.098;2022-08-18T21:20:45;19.30;99.90
16625;DHT22;8426;48.496;9.098;2022-08-18T21:25:51;19.30;99.90
16625;DHT22;8426;48.496;9.098;2022-08-18T21:31:00;19.20;99.90
16625;DHT22;8426;48.496;9.098;2022-08-18T21:36:25;19.30;99.90
16625;DHT22;8426;48.496;9.098;2022-08-18T21:41:37;19.20;99.90
16625;DHT22;8426;48.496;9.098;2022-08-18T21:46:43;19.20;99.90
16625;DHT22;8426;48.496;9.098;2022-08-18T21:51:48;19.10;99.90
16625;DHT22;8426;48.496;9.098;2022-08-18T21:57:20;19.10;99.90
16625;DHT22;8426;48.496;9.098;2022-08-18T22:02:25;19.00;99.90
16625;DHT22;8426;48.496;9.098;2022-08-18T22:07:28;18.90;99.90
16625;DHT22;8426;48.496;9.098;2022-08-18T22:12:36;18.90;99.90
16625;DHT22;8426;48.496;9.098;2022-08-18T22:18:01;18.90;99.90
16625;DHT22;8426;48.496;9.098;2022-08-18T22:23:17;18.90;99.90
16625;DHT22;8426;48.496;9.098;2022-08-18T22:28:49;18.90;99.90
16625;DHT22;8426;48.496;9.098;2022-08-18T22:33:55;18.90;99.90
16625;DHT22;8426;48.496;9.098;2022-08-18T22:38:59;18.80;99.90
16625;DHT22;8426;48.496;9.098;2022-08-18T22:44:04;18.80;99.90
16625;DHT22;8426;48.496;9.098;2022-08-18T22:49:09;18.90;99.90
16625;DHT22;8426;48.496;9.098;2022-08-18T22:54:12;18.90;99.90
16625;DHT22;8426;48.496;9.098;2022-08-18T22:59:17;19.00;99.90
16625;DHT22;8426;48.496;9.098;2022-08-18T23:04:24;19.00;99.90
16625;DHT22;8426;48.496;9.098;2022-08-18T23:09:29;18.90;99.90
16625;DHT22;8426;48.496;9.098;2022-08-18T23:14:33;18.80;99.90
16625;DHT22;8426;48.496;9.098;2022-08-18T23:19:38;18.80;99.90
16625;DHT22;8426;48.496;9.098;2022-08-18T23:24:42;18.80;99.90
16625;DHT22;8426;48.496;9.098;2022-08-18T23:29:46;18.80;99.90
16625;DHT22;8426;48.496;9.098;2022-08-18T23:34:51;18.70;99.90
16625;DHT22;8426;48.496;9.098;2022-08-18T23:39:54;18.70;99.90
16625;DHT22;8426;48.496;9.098;2022-08-18T23:44:57;18.60;99.90
16625;DHT22;8426;48.496;9.098;2022-08-18T23:50:06;18.60;99.90
16625;DHT22;8426;48.496;9.098;2022-08-18T23:55:11;18.60;99.90
